createdAt,value
2018-12-01T00:00:05.836Z,97421.44
2018-12-01T00:02:32.729Z,97418.34
2018-12-01T00:04:59.634Z,97417.30
2018-12-01T00:07:26.526Z,97414.41
2018-12-01T00:09:53.439Z,97413.38
2018-12-01T00:12:20.335Z,97412.59
2018-12-01T00:14:47.230Z,97409.97
2018-12-01T00:17:14.127Z,97404.73
2018-12-01T00:19:41.010Z,97416.00
2018-12-01T00:22:07.936Z,97412.86
2018-12-01T00:24:34.835Z,97412.86
2018-12-01T00:27:01.754Z,97414.97
2018-12-01T00:29:28.647Z,97419.92
2018-12-01T00:31:55.546Z,97417.58
2018-12-01T00:34:22.444Z,97419.41
2018-12-01T00:36:49.368Z,97416.27
2018-12-01T00:39:16.255Z,97414.45
2018-12-01T00:41:43.138Z,97407.91
2018-12-01T00:44:10.031Z,97411.03
2018-12-01T00:46:36.932Z,97415.48
2018-12-01T00:49:03.819Z,97422.30
2018-12-01T00:51:30.715Z,97425.75
2018-12-01T00:53:57.603Z,97421.81
2018-12-01T00:56:24.494Z,97430.16
2018-12-01T00:58:51.391Z,97435.70
2018-12-01T01:01:18.278Z,97431.47
2018-12-01T01:03:45.183Z,97442.77
2018-12-01T01:06:12.082Z,97441.94
2018-12-01T01:08:38.976Z,97444.08
2018-12-01T01:11:05.862Z,97442.77
2018-12-01T01:13:32.773Z,97440.15
2018-12-01T01:15:59.662Z,97445.38
2018-12-01T01:18:26.556Z,97450.11
2018-12-01T01:20:53.442Z,97453.23
2018-12-01T01:23:20.339Z,97448.80
2018-12-01T01:25:47.279Z,97448.28
2018-12-01T01:28:14.188Z,97446.97
2018-12-01T01:30:41.085Z,97446.97
2018-12-01T01:33:07.992Z,97454.83
2018-12-01T01:35:34.874Z,97452.20
2018-12-01T01:38:01.784Z,97449.59
2018-12-01T01:40:28.693Z,97451.69
2018-12-01T01:42:55.592Z,97450.38
2018-12-01T01:45:22.482Z,97448.28
2018-12-01T01:47:49.375Z,97456.92
2018-12-01T01:50:16.268Z,97456.13
2018-12-01T01:52:43.199Z,97460.06
2018-12-01T01:55:10.099Z,97450.89
2018-12-01T01:57:37.004Z,97456.65
2018-12-01T02:00:03.905Z,97453.52
2018-12-01T02:02:30.807Z,97450.38
2018-12-01T02:04:57.706Z,97453.00
2018-12-01T02:07:24.603Z,97453.28
2018-12-01T02:09:51.490Z,97457.45
2018-12-01T02:12:18.371Z,97448.28
2018-12-01T02:14:45.273Z,97453.00
2018-12-01T02:17:12.177Z,97454.55
2018-12-01T02:19:39.077Z,97452.41
2018-12-01T02:22:05.995Z,97447.18
2018-12-01T02:24:32.887Z,97445.66
2018-12-01T02:26:59.780Z,97447.77
2018-12-01T02:29:26.708Z,97453.52
2018-12-01T02:31:53.595Z,97451.93
2018-12-01T02:34:20.492Z,97451.41
2018-12-01T02:36:47.383Z,97453.52
2018-12-01T02:39:14.280Z,97444.56
2018-12-01T02:41:41.176Z,97453.00
2018-12-01T02:44:08.074Z,97450.38
2018-12-01T02:46:34.967Z,97447.48
2018-12-01T02:49:01.855Z,97448.00
2018-12-01T02:51:28.748Z,97445.15
2018-12-01T02:53:55.639Z,97442.25
2018-12-01T02:56:22.541Z,97445.15
2018-12-01T02:58:49.440Z,97449.08
2018-12-01T03:01:16.335Z,97448.80
2018-12-01T03:03:43.230Z,97448.80
2018-12-01T03:06:10.127Z,97453.23
2018-12-01T03:08:37.019Z,97455.34
2018-12-01T03:11:03.920Z,97456.69
2018-12-01T03:13:30.813Z,97453.52
2018-12-01T03:15:57.694Z,97458.23
2018-12-01T03:18:24.578Z,97454.31
2018-12-01T03:20:51.459Z,97459.27
2018-12-01T03:23:18.358Z,97459.83
2018-12-01T03:25:45.316Z,97461.14
2018-12-01T03:28:12.225Z,97466.38
2018-12-01T03:30:39.196Z,97466.38
2018-12-01T03:33:06.115Z,97466.09
2018-12-01T03:35:32.999Z,97465.58
2018-12-01T03:37:59.890Z,97465.02
2018-12-01T03:40:26.843Z,97470.02
2018-12-01T03:42:53.744Z,97464.78
2018-12-01T03:45:20.699Z,97469.44
2018-12-01T03:47:47.619Z,97466.33
2018-12-01T03:50:18.724Z,97476.28
2018-12-01T03:52:45.614Z,97477.87
2018-12-01T03:55:12.494Z,97472.36
2018-12-01T03:57:39.415Z,97474.98
2018-12-01T04:00:06.303Z,97474.23
2018-12-01T04:02:33.228Z,97483.83
2018-12-01T04:05:00.123Z,97490.17
2018-12-01T04:07:27.091Z,97485.22
2018-12-01T04:09:54.008Z,97483.11
2018-12-01T04:12:20.924Z,97487.04
2018-12-01T04:14:47.834Z,97487.04
2018-12-01T04:17:14.717Z,97489.94
2018-12-01T04:19:41.622Z,97491.25
2018-12-01T04:22:08.502Z,97497.52
2018-12-01T04:24:35.391Z,97499.86
2018-12-01T04:27:02.308Z,97501.45
2018-12-01T04:29:29.224Z,97511.13
2018-12-01T04:31:56.111Z,97507.70
2018-12-01T04:34:23.880Z,97513.22
2018-12-01T04:36:50.792Z,97505.61
2018-12-01T04:39:17.696Z,97509.53
2018-12-01T04:41:44.586Z,97512.43
2018-12-01T04:44:11.528Z,97517.44
2018-12-01T04:46:38.455Z,97521.36
2018-12-01T04:49:05.390Z,97517.16
2018-12-01T04:51:32.292Z,97512.98
2018-12-01T04:53:59.178Z,97517.71
2018-12-01T04:56:26.084Z,97515.09
2018-12-01T04:58:52.967Z,97510.33
2018-12-01T05:01:19.879Z,97515.05
2018-12-01T05:03:46.772Z,97510.38
2018-12-01T05:06:13.668Z,97510.89
2018-12-01T05:08:40.572Z,97505.13
2018-12-01T05:11:07.472Z,97506.16
2018-12-01T05:13:34.379Z,97509.06
2018-12-01T05:16:01.276Z,97508.55
2018-12-01T05:18:28.169Z,97509.58
2018-12-01T05:20:55.078Z,97508.55
2018-12-01T05:23:21.978Z,97509.06
2018-12-01T05:25:48.886Z,97510.66
2018-12-01T05:28:15.771Z,97512.47
2018-12-01T05:30:42.663Z,97520.05
2018-12-01T05:33:09.554Z,97522.39
2018-12-01T05:35:36.455Z,97518.46
2018-12-01T05:38:03.371Z,97517.71
2018-12-01T05:40:30.353Z,97523.70
2018-12-01T05:42:57.253Z,97522.39
2018-12-01T05:45:24.153Z,97526.59
2018-12-01T05:47:51.077Z,97525.57
2018-12-01T05:50:24.868Z,97527.39
2018-12-01T05:52:51.786Z,97531.08
2018-12-01T05:55:18.679Z,97532.11
2018-12-01T05:57:45.571Z,97534.73
2018-12-01T06:00:12.463Z,97536.32
2018-12-01T06:02:39.350Z,97539.17
2018-12-01T06:05:06.271Z,97543.89
2018-12-01T06:07:33.163Z,97554.37
2018-12-01T06:10:00.168Z,97548.63
2018-12-01T06:12:27.073Z,97545.72
2018-12-01T06:14:53.967Z,97552.50
2018-12-01T06:17:20.868Z,97553.58
2018-12-01T06:19:47.779Z,97556.16
2018-12-01T06:22:14.706Z,97560.13
2018-12-01T06:24:41.590Z,97558.02
2018-12-01T06:27:08.499Z,97558.02
2018-12-01T06:29:35.398Z,97563.30
2018-12-01T06:32:02.301Z,97555.16
2018-12-01T06:34:29.196Z,97558.58
2018-12-01T06:36:56.095Z,97560.41
2018-12-01T06:39:23.067Z,97558.81
2018-12-01T06:41:49.950Z,97565.36
2018-12-01T06:44:16.844Z,97573.73
2018-12-01T06:46:43.726Z,97575.83
2018-12-01T06:49:10.629Z,97580.05
2018-12-01T06:51:37.527Z,97576.39
2018-12-01T06:54:04.468Z,97578.73
2018-12-01T06:56:31.359Z,97583.97
2018-12-01T06:58:58.252Z,97595.24
2018-12-01T07:01:25.172Z,97586.31
2018-12-01T07:03:52.059Z,97593.93
2018-12-01T07:06:18.965Z,97586.08
2018-12-01T07:08:45.893Z,97595.48
2018-12-01T07:11:12.847Z,97597.30
2018-12-01T07:13:39.786Z,97602.81
2018-12-01T07:16:07.103Z,97594.68
2018-12-01T07:18:34.057Z,97596.55
2018-12-01T07:21:01.365Z,97599.92
2018-12-01T07:23:28.401Z,97603.61
2018-12-01T07:25:55.381Z,97605.44
2018-12-01T07:28:22.437Z,97602.77
2018-12-01T07:30:49.419Z,97605.39
2018-12-01T07:33:16.464Z,97604.59
2018-12-01T07:35:43.535Z,97606.98
2018-12-01T07:38:10.563Z,97599.92
2018-12-01T07:40:37.874Z,97606.74
2018-12-01T07:43:04.880Z,97605.95
2018-12-01T07:45:31.970Z,97615.91
2018-12-01T07:47:58.957Z,97617.97
2018-12-01T07:50:25.987Z,97615.63
2018-12-01T07:52:52.970Z,97618.02
2018-12-01T07:55:20.020Z,97626.38
2018-12-01T07:57:47.030Z,97626.66
2018-12-01T08:00:14.044Z,97629.00
2018-12-01T08:02:41.090Z,97620.87
2018-12-01T08:05:08.012Z,97626.10
2018-12-01T08:07:34.903Z,97632.42
2018-12-01T08:10:02.040Z,97631.91
2018-12-01T08:12:29.067Z,97630.83
2018-12-01T08:14:55.997Z,97636.11
2018-12-01T08:17:22.891Z,97642.38
2018-12-01T08:19:49.783Z,97638.97
2018-12-01T08:22:16.688Z,97642.09
2018-12-01T08:24:43.586Z,97640.78
2018-12-01T08:27:10.511Z,97633.73
2018-12-01T08:29:37.418Z,97643.17
2018-12-01T08:32:04.325Z,97638.97
2018-12-01T08:34:31.280Z,97643.17
2018-12-01T08:36:58.181Z,97644.53
2018-12-01T08:39:25.095Z,97652.67
2018-12-01T08:41:51.989Z,97646.13
2018-12-01T08:44:18.878Z,97650.05
2018-12-01T08:46:45.779Z,97645.61
2018-12-01T08:49:12.727Z,97648.17
2018-12-01T08:51:39.624Z,97641.86
2018-12-01T08:54:06.523Z,97640.04
2018-12-01T08:56:33.453Z,97641.91
2018-12-01T08:59:00.356Z,97648.97
2018-12-01T09:01:27.243Z,97645.56
2018-12-01T09:03:54.143Z,97645.05
2018-12-01T09:06:21.048Z,97636.67
2018-12-01T09:08:48.016Z,97639.06
2018-12-01T09:11:14.912Z,97634.84
2018-12-01T09:13:41.816Z,97640.09
2018-12-01T09:16:08.717Z,97646.64
2018-12-01T09:18:35.610Z,97647.15
2018-12-01T09:21:02.529Z,97652.11
2018-12-01T09:23:29.428Z,97651.59
2018-12-01T09:25:56.320Z,97647.66
2018-12-01T09:28:23.206Z,97646.87
2018-12-01T09:30:50.094Z,97648.73
2018-12-01T09:33:16.988Z,97649.77
2018-12-01T09:35:43.915Z,97638.22
2018-12-01T09:38:10.827Z,97643.55
2018-12-01T09:40:37.725Z,97638.55
2018-12-01T09:43:04.627Z,97637.52
2018-12-01T09:45:31.523Z,97632.80
2018-12-01T09:47:58.434Z,97630.17
2018-12-01T09:50:25.815Z,97628.86
2018-12-01T09:52:53.815Z,97629.89
2018-12-01T09:55:27.741Z,97622.31
2018-12-01T09:57:54.685Z,97594.24
2018-12-01T10:00:21.583Z,97616.80
2018-12-01T10:02:48.475Z,97610.77
2018-12-01T10:05:15.371Z,97609.22
2018-12-01T10:07:42.280Z,97607.63
2018-12-01T10:10:09.193Z,97599.27
2018-12-01T10:12:36.153Z,97587.48
2018-12-01T10:15:03.124Z,97590.14
2018-12-01T10:17:30.106Z,97590.73
2018-12-01T10:19:57.040Z,97583.95
2018-12-01T10:22:23.958Z,97583.44
2018-12-01T10:24:50.873Z,97580.53
2018-12-01T10:27:17.763Z,97575.58
2018-12-01T10:29:44.760Z,97570.34
2018-12-01T10:32:11.670Z,97569.83
2018-12-01T10:34:38.739Z,97568.28
2018-12-01T10:37:05.687Z,97557.80
2018-12-01T10:39:32.601Z,97557.28
2018-12-01T10:42:03.646Z,97545.78
2018-12-01T10:44:26.668Z,97542.64
2018-12-01T10:46:53.698Z,97545.88
2018-12-01T10:49:20.591Z,97549.03
2018-12-01T10:51:47.609Z,97548.69
2018-12-01T10:54:14.619Z,97554.86
2018-12-01T10:56:41.540Z,97557.66
2018-12-01T10:59:08.569Z,97547.66
2018-12-01T11:01:39.678Z,97540.27
2018-12-01T11:04:11.992Z,97540.87
2018-12-01T11:06:38.959Z,97542.25
2018-12-01T11:09:05.864Z,97546.98
2018-12-01T11:11:32.780Z,97544.13
2018-12-01T11:13:59.680Z,97552.02
2018-12-01T11:16:26.586Z,97548.89
2018-12-01T11:18:53.512Z,97547.34
2018-12-01T11:21:20.460Z,97550.16
2018-12-01T11:23:47.369Z,97543.85
2018-12-01T11:26:14.265Z,97550.40
2018-12-01T11:28:41.161Z,97541.56
2018-12-01T11:31:08.062Z,97538.70
2018-12-01T11:33:34.958Z,97532.44
2018-12-01T11:36:01.849Z,97529.31
2018-12-01T11:38:28.777Z,97524.50
2018-12-01T11:40:55.671Z,97523.32
2018-12-01T11:43:22.695Z,97525.45
2018-12-01T11:45:49.610Z,97525.77
2018-12-01T11:48:16.519Z,97528.16
2018-12-01T11:50:43.430Z,97523.11
2018-12-01T11:53:10.341Z,97527.16
2018-12-01T11:55:37.226Z,97529.19
2018-12-01T11:58:04.147Z,97529.15
2018-12-01T12:00:31.056Z,97529.88
2018-12-01T12:02:57.942Z,97533.52
2018-12-01T12:05:24.837Z,97533.24
2018-12-01T12:07:51.741Z,97540.34
2018-12-01T12:10:18.639Z,97544.27
2018-12-01T12:12:45.540Z,97539.11
2018-12-01T12:15:12.512Z,97545.14
2018-12-01T12:17:39.404Z,97542.76
2018-12-01T12:20:06.302Z,97538.98
2018-12-01T12:22:33.192Z,97539.37
2018-12-01T12:25:00.092Z,97537.63
2018-12-01T12:27:27.007Z,97531.70
2018-12-01T12:29:53.912Z,97531.50
2018-12-01T12:32:20.790Z,97534.70
2018-12-01T12:34:47.683Z,97533.33
2018-12-01T12:37:14.602Z,97534.98
2018-12-01T12:39:41.504Z,97524.63
2018-12-01T12:42:08.407Z,97518.08
2018-12-01T12:44:35.321Z,97518.19
2018-12-01T12:47:02.227Z,97508.25
2018-12-01T12:49:29.257Z,97509.42
2018-12-01T12:51:56.151Z,97505.22
2018-12-01T12:54:23.075Z,97498.69
2018-12-01T12:56:50.057Z,97502.87
2018-12-01T12:59:16.959Z,97499.34
2018-12-01T13:01:43.848Z,97490.66
2018-12-01T13:04:10.763Z,97492.72
2018-12-01T13:06:37.665Z,97475.93
2018-12-01T13:09:04.656Z,97483.23
2018-12-01T13:11:31.560Z,97477.69
2018-12-01T13:13:58.479Z,97480.30
2018-12-01T13:16:25.380Z,97486.86
2018-12-01T13:18:52.320Z,97490.79
2018-12-01T13:21:19.221Z,97491.30
2018-12-01T13:23:46.107Z,97488.96
2018-12-01T13:26:13.029Z,97493.41
2018-12-01T13:28:39.933Z,97486.30
2018-12-01T13:31:06.831Z,97493.89
2018-12-01T13:33:33.736Z,97497.55
2018-12-01T13:36:00.629Z,97501.47
2018-12-01T13:38:27.534Z,97499.61
2018-12-01T13:40:54.453Z,97503.53
2018-12-01T13:43:21.377Z,97491.47
2018-12-01T13:45:48.279Z,97498.02
2018-12-01T13:48:15.183Z,97490.16
2018-12-01T13:50:42.088Z,97491.70
2018-12-01T13:53:08.980Z,97486.19
2018-12-01T13:55:35.875Z,97489.09
2018-12-01T13:58:02.798Z,97486.98
2018-12-01T14:00:29.698Z,97484.09
2018-12-01T14:02:56.601Z,97481.47
2018-12-01T14:05:23.557Z,97478.05
2018-12-01T14:07:50.447Z,97477.26
2018-12-01T14:10:17.346Z,97476.16
2018-12-01T14:12:44.335Z,97475.67
2018-12-01T14:15:11.240Z,97470.44
2018-12-01T14:17:38.171Z,97469.13
2018-12-01T14:20:05.080Z,97471.74
2018-12-01T14:22:31.985Z,97480.39
2018-12-01T14:24:58.880Z,97473.26
2018-12-01T14:27:25.772Z,97473.26
2018-12-01T14:29:52.682Z,97481.13
2018-12-01T14:32:19.583Z,97468.81
2018-12-01T14:34:46.493Z,97475.36
2018-12-01T14:37:13.388Z,97476.67
2018-12-01T14:39:40.303Z,97475.12
2018-12-01T14:42:07.217Z,97475.73
2018-12-01T14:44:34.111Z,97474.55
2018-12-01T14:47:01.020Z,97471.41
2018-12-01T14:49:27.915Z,97471.90
2018-12-01T14:51:54.824Z,97467.61
2018-12-01T14:54:21.720Z,97478.22
2018-12-01T14:56:48.614Z,97478.40
2018-12-01T14:59:15.524Z,97473.69
2018-12-01T15:04:27.842Z,97464.45
2018-12-01T15:06:54.768Z,97473.47
2018-12-01T15:09:21.695Z,97480.45
2018-12-01T15:11:48.592Z,97482.91
2018-12-01T15:14:15.533Z,97482.25
2018-12-01T15:16:42.428Z,97485.54
2018-12-01T15:19:09.319Z,97478.87
2018-12-01T15:21:36.231Z,97477.91
2018-12-01T15:24:03.133Z,97476.44
2018-12-01T15:26:30.047Z,97479.84
2018-12-01T15:28:56.935Z,97475.11
2018-12-01T15:31:23.839Z,97472.30
2018-12-01T15:33:51.116Z,97480.31
2018-12-01T15:36:18.010Z,97470.51
2018-12-01T15:38:44.928Z,97462.45
2018-12-01T15:41:11.914Z,97461.13
2018-12-01T15:43:38.807Z,97462.64
2018-12-01T15:46:05.720Z,97467.28
2018-12-01T15:48:32.617Z,97473.70
2018-12-01T15:50:59.557Z,97475.15
2018-12-01T15:53:26.445Z,97476.57
2018-12-01T15:55:59.047Z,97474.36
2018-12-01T15:58:25.938Z,97472.63
2018-12-01T16:00:52.833Z,97468.81
2018-12-01T16:03:20.150Z,97469.95
2018-12-01T16:05:47.096Z,97478.16
2018-12-01T16:08:14.084Z,97468.56
2018-12-01T16:10:40.976Z,97468.38
2018-12-01T16:13:07.884Z,97471.84
2018-12-01T16:15:34.797Z,97474.03
2018-12-01T16:18:01.716Z,97466.53
2018-12-01T16:20:28.703Z,97462.94
2018-12-01T16:22:55.624Z,97461.69
2018-12-01T16:25:22.650Z,97466.25
2018-12-01T16:27:49.570Z,97462.95
2018-12-01T16:30:16.679Z,97468.00
2018-12-01T16:32:43.592Z,97468.11
2018-12-01T16:35:10.493Z,97472.88
2018-12-01T16:37:37.400Z,97472.13
2018-12-01T16:40:04.310Z,97465.65
2018-12-01T16:42:31.208Z,97463.87
2018-12-01T16:44:58.141Z,97471.52
2018-12-01T16:47:25.042Z,97464.23
2018-12-01T16:49:51.940Z,97464.28
2018-12-01T16:52:18.842Z,97461.72
2018-12-01T16:54:45.768Z,97457.56
2018-12-01T16:57:12.661Z,97455.00
2018-12-01T16:59:39.560Z,97449.56
2018-12-01T17:02:06.460Z,97446.72
2018-12-01T17:04:33.367Z,97444.94
2018-12-01T17:07:00.268Z,97449.94
2018-12-01T17:09:27.166Z,97447.60
2018-12-01T17:11:54.062Z,97452.37
2018-12-01T17:14:20.951Z,97451.94
2018-12-01T17:16:47.952Z,97448.29
2018-12-01T17:19:14.843Z,97448.33
2018-12-01T17:21:41.743Z,97441.80
2018-12-01T17:24:08.644Z,97440.53
2018-12-01T17:26:36.493Z,97444.22
2018-12-01T17:29:03.556Z,97442.16
2018-12-01T17:31:30.450Z,97436.14
2018-12-01T17:33:57.374Z,97433.28
2018-12-01T17:36:24.275Z,97431.25
2018-12-01T17:38:51.170Z,97434.16
2018-12-01T17:41:18.079Z,97427.66
2018-12-01T17:43:44.968Z,97426.91
2018-12-01T17:46:11.873Z,97420.64
2018-12-01T17:48:38.792Z,97422.51
2018-12-01T17:51:05.694Z,97424.89
2018-12-01T17:53:32.599Z,97422.55
2018-12-01T17:55:59.500Z,97418.11
2018-12-01T17:58:26.409Z,97426.31
2018-12-01T18:00:53.324Z,97419.02
2018-12-01T18:03:20.283Z,97424.25
2018-12-01T18:05:47.183Z,97428.73
2018-12-01T18:08:14.075Z,97430.84
2018-12-01T18:10:41.053Z,97431.91
2018-12-01T18:13:07.955Z,97427.75
2018-12-01T18:15:34.865Z,97425.69
2018-12-01T18:18:01.791Z,97426.80
2018-12-01T18:20:28.675Z,97429.73
2018-12-01T18:22:55.594Z,97428.94
2018-12-01T18:25:22.511Z,97419.30
2018-12-01T18:27:49.422Z,97424.30
2018-12-01T18:30:16.318Z,97423.27
2018-12-01T18:32:43.229Z,97425.36
2018-12-01T18:35:10.172Z,97426.98
2018-12-01T18:37:37.076Z,97430.98
2018-12-01T18:40:03.981Z,97430.47
2018-12-01T18:42:30.891Z,97422.66
2018-12-01T18:44:57.809Z,97425.51
2018-12-01T18:47:24.747Z,97426.58
2018-12-01T18:49:51.660Z,97425.03
2018-12-01T18:52:18.552Z,97421.38
2018-12-01T18:54:45.450Z,97416.70
2018-12-01T18:57:12.376Z,97418.52
2018-12-01T18:59:39.279Z,97413.84
2018-12-01T19:02:06.179Z,97408.09
2018-12-01T19:04:33.081Z,97405.23
2018-12-01T19:06:59.999Z,97413.09
2018-12-01T19:09:26.907Z,97406.81
2018-12-01T19:11:53.826Z,97403.59
2018-12-01T19:14:20.727Z,97398.39
2018-12-01T19:16:47.631Z,97396.97
2018-12-01T19:19:14.535Z,97397.86
2018-12-01T19:21:41.435Z,97400.66
2018-12-01T19:24:08.330Z,97398.21
2018-12-01T19:26:35.220Z,97401.63
2018-12-01T19:29:02.148Z,97399.24
2018-12-01T19:31:29.075Z,97405.27
2018-12-01T19:33:56.056Z,97396.04
2018-12-01T19:36:22.953Z,97395.04
2018-12-01T19:38:49.911Z,97395.04
2018-12-01T19:41:16.815Z,97391.70
2018-12-01T19:43:43.827Z,97386.94
2018-12-01T19:46:10.740Z,97375.95
2018-12-01T19:48:37.632Z,97371.77
2018-12-01T19:51:04.570Z,97362.05
2018-12-01T19:53:31.478Z,97364.98
2018-12-01T19:55:58.404Z,97357.13
2018-12-01T19:58:25.293Z,97357.41
2018-12-01T20:00:52.174Z,97353.75
2018-12-01T20:03:19.342Z,97355.33
2018-12-01T20:05:46.253Z,97349.84
2018-12-01T20:08:13.156Z,97352.95
2018-12-01T20:10:40.094Z,97361.88
2018-12-01T20:13:07.056Z,97355.58
2018-12-01T20:15:33.947Z,97361.88
2018-12-01T20:18:00.872Z,97356.47
2018-12-01T20:20:27.788Z,97352.47
2018-12-01T20:22:54.681Z,97351.13
2018-12-01T20:25:21.576Z,97350.38
2018-12-01T20:27:48.489Z,97350.33
2018-12-01T20:30:15.471Z,97356.41
2018-12-01T20:32:42.366Z,97359.54
2018-12-01T20:35:09.295Z,97355.09
2018-12-01T20:37:36.178Z,97350.13
2018-12-01T20:40:03.088Z,97354.12
2018-12-01T20:42:30.018Z,97351.16
2018-12-01T20:44:56.927Z,97352.75
2018-12-01T20:47:24.091Z,97349.09
2018-12-01T20:49:50.991Z,97343.06
2018-12-01T20:52:17.920Z,97340.75
2018-12-01T20:54:45.063Z,97349.09
2018-12-01T20:57:11.974Z,97352.75
2018-12-01T20:59:38.859Z,97346.20
2018-12-01T21:04:44.567Z,97347.57
2018-12-01T21:07:11.451Z,97344.43
2018-12-01T21:09:38.357Z,97324.07
2018-12-01T21:12:05.303Z,97339.20
2018-12-01T21:14:32.232Z,97338.67
2018-12-01T21:16:59.128Z,97332.37
2018-12-01T21:19:26.040Z,97330.02
2018-12-01T21:21:52.942Z,97326.37
2018-12-01T21:24:19.937Z,97322.19
2018-12-01T21:26:46.891Z,97315.09
2018-12-01T21:29:13.799Z,97314.30
2018-12-01T21:31:40.737Z,97310.65
2018-12-01T21:34:07.687Z,97316.92
2018-12-01T21:36:34.585Z,97313.79
2018-12-01T21:39:01.488Z,97307.75
2018-12-01T21:41:28.380Z,97300.95
2018-12-01T21:43:55.289Z,97297.03
2018-12-01T21:46:22.239Z,97299.65
2018-12-01T21:48:49.211Z,97296.52
2018-12-01T21:51:16.112Z,97296.52
2018-12-01T21:53:43.031Z,97290.75
2018-12-01T21:56:10.027Z,97289.45
2018-12-01T21:58:36.918Z,97294.44
2018-12-01T22:01:03.827Z,97298.89
2018-12-01T22:03:30.706Z,97301.30
2018-12-01T22:05:57.631Z,97298.13
2018-12-01T22:08:24.518Z,97287.65
2018-12-01T22:10:51.476Z,97291.58
2018-12-01T22:13:18.371Z,97293.41
2018-12-01T22:15:45.663Z,97291.06
2018-12-01T22:18:12.570Z,97275.86
2018-12-01T22:20:39.458Z,97264.06
2018-12-01T22:23:06.401Z,97263.82
2018-12-01T22:25:33.298Z,97269.06
2018-12-01T22:28:00.216Z,97265.66
2018-12-01T22:30:27.108Z,97257.27
2018-12-01T22:32:54.103Z,97257.27
2018-12-01T22:35:21.042Z,97259.09
2018-12-01T22:37:47.975Z,97260.92
2018-12-01T22:40:14.871Z,97259.89
2018-12-01T22:42:41.796Z,97255.44
2018-12-01T22:45:09.074Z,97258.85
2018-12-01T22:47:36.212Z,97259.89
2018-12-01T22:50:03.328Z,97258.34
2018-12-01T22:52:30.346Z,97257.03
2018-12-01T22:54:57.269Z,97248.89
2018-12-01T22:57:24.407Z,97238.93
2018-12-01T22:59:51.468Z,97242.86
2018-12-01T23:02:18.652Z,97233.69
2018-12-01T23:04:45.692Z,97230.28
2018-12-01T23:07:12.758Z,97223.73
2018-12-01T23:09:39.901Z,97222.69
2018-12-01T23:12:06.860Z,97224.79
2018-12-01T23:14:33.763Z,97220.34
2018-12-01T23:17:00.677Z,97221.65
2018-12-01T23:19:27.572Z,97219.03
2018-12-01T23:21:54.518Z,97224.27
2018-12-01T23:24:21.601Z,97220.07
2018-12-01T23:26:48.502Z,97218.48
2018-12-01T23:29:15.465Z,97214.04
2018-12-01T23:31:42.816Z,97224.27
2018-12-01T23:34:09.738Z,97222.17
2018-12-01T23:36:36.626Z,97214.04
2018-12-01T23:39:03.969Z,97213.52
2018-12-01T23:41:30.871Z,97209.07
2018-12-01T23:43:57.790Z,97206.45
2018-12-01T23:46:24.705Z,97204.10
2018-12-01T23:48:51.631Z,97203.31
2018-12-01T23:51:18.520Z,97203.83
2018-12-01T23:53:45.436Z,97193.63
2018-12-01T23:56:12.331Z,97187.07
2018-12-01T23:58:39.244Z,97184.45
